Time;durP1;ratioP1;P1;durP2;ratioP2;P2;SDS_P1;SDS_P2;PMS_P1;PMS_P2;Temp;Humidity;BMP_temperature;BMP_pressure;BME280_temperature;BME280_humidity;BME280_pressure;Samples;Min_cycle;Max_cycle;Signal;HPM_P1;HPM_P2
2023/03/29 00:00:58;;;;;;;3.42;3.00;;;;;;;;;;5013069;28;20198;-60
2023/03/29 00:03:25;;;;;;;4.50;2.63;;;;;;;;;;5013292;28;20193;-60
2023/03/29 00:05:56;;;;;;;2.75;2.40;;;;;;;;;;5013192;28;20213;-60
2023/03/29 00:08:23;;;;;;;3.17;2.95;;;;;;;;;;5013328;28;20229;-60
2023/03/29 00:10:50;;;;;;;9.18;5.25;;;;;;;;;;5016432;28;20219;-60
2023/03/29 00:13:18;;;;;;;5.10;3.88;;;;;;;;;;5017059;28;20191;-60
2023/03/29 00:15:45;;;;;;;4.63;4.22;;;;;;;;;;5016997;28;20191;-60
2023/03/29 00:18:12;;;;;;;4.25;2.58;;;;;;;;;;5016905;28;20284;-60
2023/03/29 00:20:39;;;;;;;5.07;3.40;;;;;;;;;;5016857;28;20284;-61
2023/03/29 00:23:06;;;;;;;3.33;2.63;;;;;;;;;;5016665;28;20194;-60
2023/03/29 00:25:33;;;;;;;3.65;3.08;;;;;;;;;;5016878;28;20285;-60
2023/03/29 00:28:00;;;;;;;3.97;3.20;;;;;;;;;;5016746;28;20225;-60
2023/03/29 00:30:28;;;;;;;8.63;4.65;;;;;;;;;;5016947;28;20227;-60
2023/03/29 00:32:55;;;;;;;4.75;4.25;;;;;;;;;;5016663;28;20570;-60
2023/03/29 00:35:22;;;;;;;6.40;3.85;;;;;;;;;;5016491;28;20201;-61
2023/03/29 00:37:51;;;;;;;4.68;3.30;;;;;;;;;;5016230;28;20198;-60
2023/03/29 00:40:18;;;;;;;8.88;3.67;;;;;;;;;;5016632;28;20202;-61
2023/03/29 00:42:45;;;;;;;5.07;3.45;;;;;;;;;;5016477;28;20200;-61
2023/03/29 00:45:20;;;;;;;4.05;2.72;;;;;;;;;;5016460;28;20297;-60
2023/03/29 00:47:49;;;;;;;2.95;2.70;;;;;;;;;;5016313;28;20224;-60
2023/03/29 00:50:21;;;;;;;6.28;3.85;;;;;;;;;;5016182;28;20241;-60
2023/03/29 00:52:49;;;;;;;3.92;3.60;;;;;;;;;;5016422;28;20202;-60
2023/03/29 00:55:17;;;;;;;6.90;3.92;;;;;;;;;;5016370;28;20232;-60
2023/03/29 00:57:45;;;;;;;4.53;3.33;;;;;;;;;;5016223;28;20194;-60
2023/03/29 01:00:14;;;;;;;6.50;3.63;;;;;;;;;;5016067;28;20553;-60
2023/03/29 01:02:42;;;;;;;4.15;3.75;;;;;;;;;;5015989;28;20195;-60
2023/03/29 01:05:13;;;;;;;9.25;4.50;;;;;;;;;;5016062;28;20286;-60
2023/03/29 01:07:42;;;;;;;7.55;4.88;;;;;;;;;;5016038;28;20276;-61
2023/03/29 01:10:11;;;;;;;4.60;3.80;;;;;;;;;;5015847;28;20691;-60
2023/03/29 01:12:40;;;;;;;4.50;3.80;;;;;;;;;;5016105;28;20194;-60
2023/03/29 01:15:09;;;;;;;5.03;4.30;;;;;;;;;;5015748;28;20197;-60
2023/03/29 01:17:36;;;;;;;4.50;3.10;;;;;;;;;;5016177;28;20281;-59
2023/03/29 01:20:12;;;;;;;3.72;3.30;;;;;;;;;;5015519;28;20214;-60
2023/03/29 01:22:46;;;;;;;11.38;4.05;;;;;;;;;;5014982;28;20227;-60
2023/03/29 01:25:16;;;;;;;4.90;3.40;;;;;;;;;;5015636;28;20630;-61
2023/03/29 01:27:48;;;;;;;6.95;4.18;;;;;;;;;;5015417;28;20218;-60
2023/03/29 01:30:18;;;;;;;5.43;3.45;;;;;;;;;;5015652;28;20191;-60
2023/03/29 01:32:49;;;;;;;7.30;3.20;;;;;;;;;;5015721;28;20288;-60
2023/03/29 01:35:18;;;;;;;5.22;3.20;;;;;;;;;;5015387;28;20210;-60
2023/03/29 01:37:48;;;;;;;4.47;3.28;;;;;;;;;;5015133;28;20233;-59
2023/03/29 01:40:15;;;;;;;3.78;3.33;;;;;;;;;;5015301;28;20205;-60
2023/03/29 01:42:45;;;;;;;4.95;3.60;;;;;;;;;;5015485;28;20195;-60
2023/03/29 01:45:20;;;;;;;3.40;2.45;;;;;;;;;;5015417;28;20195;-60
2023/03/29 01:47:50;;;;;;;3.00;2.80;;;;;;;;;;5015128;28;20213;-60
2023/03/29 01:50:20;;;;;;;4.55;3.72;;;;;;;;;;5014992;28;20194;-61
2023/03/29 01:52:49;;;;;;;2.97;2.75;;;;;;;;;;5014940;28;20191;-60
2023/03/29 01:55:19;;;;;;;6.03;3.47;;;;;;;;;;5015042;28;20590;-60
2023/03/29 01:57:46;;;;;;;3.40;3.05;;;;;;;;;;5015244;28;20230;-60
2023/03/29 02:00:17;;;;;;;4.18;2.90;;;;;;;;;;5014943;28;20286;-60
2023/03/29 02:02:46;;;;;;;3.00;2.80;;;;;;;;;;5014873;28;20202;-61
2023/03/29 02:05:14;;;;;;;5.05;2.80;;;;;;;;;;5014704;28;20190;-60
2023/03/29 02:07:42;;;;;;;5.53;3.15;;;;;;;;;;5014966;28;20637;-60
2023/03/29 02:10:11;;;;;;;3.80;3.50;;;;;;;;;;5014769;28;20224;-61
2023/03/29 02:12:38;;;;;;;3.90;3.13;;;;;;;;;;5014546;28;20194;-61
2023/03/29 02:15:06;;;;;;;2.92;2.63;;;;;;;;;;5014416;28;20547;-61
2023/03/29 02:17:34;;;;;;;4.35;3.95;;;;;;;;;;5014385;28;20198;-61
2023/03/29 02:20:09;;;;;;;8.40;3.55;;;;;;;;;;5014745;28;20277;-60
2023/03/29 02:22:39;;;;;;;4.55;3.60;;;;;;;;;;5014454;28;20244;-60
2023/03/29 02:25:08;;;;;;;4.45;2.72;;;;;;;;;;5014683;28;20194;-60
2023/03/29 02:27:36;;;;;;;3.75;3.00;;;;;;;;;;5014294;28;20215;-60
2023/03/29 02:30:03;;;;;;;3.58;3.25;;;;;;;;;;5014278;28;20253;-60
2023/03/29 02:32:32;;;;;;;3.55;3.25;;;;;;;;;;5014079;28;20225;-60
2023/03/29 02:35:03;;;;;;;7.78;3.42;;;;;;;;;;5014285;28;20198;-60
2023/03/29 02:37:33;;;;;;;4.97;3.22;;;;;;;;;;5014324;28;20554;-60
2023/03/29 02:40:06;;;;;;;3.65;3.15;;;;;;;;;;5014109;28;20253;-60
2023/03/29 02:42:33;;;;;;;4.05;2.90;;;;;;;;;;5014063;28;20276;-60
2023/03/29 02:45:00;;;;;;;3.65;3.35;;;;;;;;;;5013922;28;20612;-60
2023/03/29 02:47:30;;;;;;;2.88;2.58;;;;;;;;;;5013941;28;20219;-60
2023/03/29 02:49:57;;;;;;;3.13;2.83;;;;;;;;;;5014104;28;20198;-60
2023/03/29 02:52:27;;;;;;;4.05;2.75;;;;;;;;;;5013998;28;20537;-60
2023/03/29 02:54:54;;;;;;;6.82;3.33;;;;;;;;;;5013804;28;20531;-60
2023/03/29 02:57:25;;;;;;;4.25;2.78;;;;;;;;;;5013786;28;20208;-60
2023/03/29 02:59:52;;;;;;;4.45;2.92;;;;;;;;;;5013912;28;20194;-60
2023/03/29 03:02:19;;;;;;;5.03;2.85;;;;;;;;;;5013770;28;20256;-60
2023/03/29 03:04:46;;;;;;;4.55;3.60;;;;;;;;;;5013769;28;20195;-60
2023/03/29 03:07:13;;;;;;;8.60;2.75;;;;;;;;;;5013898;28;20194;-60
2023/03/29 03:09:41;;;;;;;2.90;2.70;;;;;;;;;;5013475;28;20575;-59
2023/03/29 03:12:08;;;;;;;4.85;2.40;;;;;;;;;;5013601;28;20202;-59
2023/03/29 03:14:35;;;;;;;6.85;2.67;;;;;;;;;;5013553;28;20198;-59
2023/03/29 03:17:02;;;;;;;3.92;2.55;;;;;;;;;;5013620;28;20285;-59
2023/03/29 03:19:29;;;;;;;2.55;2.35;;;;;;;;;;5013645;28;20725;-60
2023/03/29 03:21:56;;;;;;;2.88;2.40;;;;;;;;;;5013558;28;20609;-59
2023/03/29 03:24:23;;;;;;;4.72;2.78;;;;;;;;;;5013334;28;20625;-59
2023/03/29 03:26:51;;;;;;;2.85;2.65;;;;;;;;;;5013543;28;20195;-60
2023/03/29 03:29:18;;;;;;;5.13;2.80;;;;;;;;;;5013711;28;20221;-59
2023/03/29 03:31:45;;;;;;;4.22;2.72;;;;;;;;;;5013295;28;20232;-59
2023/03/29 03:34:12;;;;;;;8.52;2.78;;;;;;;;;;5013293;28;20555;-59
2023/03/29 03:36:39;;;;;;;4.55;4.03;;;;;;;;;;5013060;28;20198;-59
2023/03/29 03:39:06;;;;;;;5.90;3.03;;;;;;;;;;5013184;28;20229;-59
2023/03/29 03:41:33;;;;;;;3.47;2.53;;;;;;;;;;5013547;28;20625;-59
2023/03/29 03:44:01;;;;;;;5.30;2.53;;;;;;;;;;5012433;28;20575;-59
2023/03/29 03:46:28;;;;;;;5.18;2.85;;;;;;;;;;5013182;28;20198;-59
2023/03/29 03:48:55;;;;;;;5.20;2.70;;;;;;;;;;5013040;28;20225;-59
2023/03/29 03:51:22;;;;;;;2.45;2.25;;;;;;;;;;5013015;28;20198;-61
2023/03/29 03:53:49;;;;;;;11.93;3.45;;;;;;;;;;5013129;28;20223;-59
2023/03/29 03:56:16;;;;;;;6.97;2.83;;;;;;;;;;5013221;28;20539;-61
2023/03/29 03:58:43;;;;;;;7.82;2.30;;;;;;;;;;5013299;28;20192;-61
2023/03/29 04:01:12;;;;;;;3.70;2.30;;;;;;;;;;5013049;28;20621;-61
2023/03/29 04:03:39;;;;;;;3.33;2.22;;;;;;;;;;5013083;28;20221;-62
2023/03/29 04:06:06;;;;;;;6.65;2.30;;;;;;;;;;5012835;28;20686;-62
2023/03/29 04:08:33;;;;;;;3.13;2.30;;;;;;;;;;5012995;28;20222;-61
2023/03/29 04:11:00;;;;;;;3.25;2.38;;;;;;;;;;5012999;28;20647;-61
2023/03/29 04:13:27;;;;;;;5.65;2.30;;;;;;;;;;5012967;28;20565;-61
2023/03/29 04:15:55;;;;;;;5.00;2.15;;;;;;;;;;5012845;28;20681;-61
2023/03/29 04:18:23;;;;;;;2.42;2.05;;;;;;;;;;5012770;28;20198;-61
2023/03/29 04:20:50;;;;;;;4.55;2.35;;;;;;;;;;5012973;28;20192;-61
2023/03/29 04:23:17;;;;;;;5.68;2.30;;;;;;;;;;5012832;28;20543;-61
2023/03/29 04:25:44;;;;;;;3.55;2.13;;;;;;;;;;5012829;28;20298;-61
2023/03/29 04:28:12;;;;;;;4.93;2.08;;;;;;;;;;5012677;28;20212;-61
2023/03/29 04:30:39;;;;;;;7.35;2.83;;;;;;;;;;5012505;28;20198;-61
2023/03/29 04:33:05;;;;;;;3.97;1.98;;;;;;;;;;5012507;28;20640;-61
2023/03/29 04:35:34;;;;;;;3.78;2.42;;;;;;;;;;5012792;28;20194;-61
2023/03/29 04:38:03;;;;;;;3.38;2.25;;;;;;;;;;5012569;28;20198;-61
2023/03/29 04:40:30;;;;;;;3.35;2.53;;;;;;;;;;5012687;28;20196;-61
2023/03/29 04:42:57;;;;;;;4.82;2.22;;;;;;;;;;5012524;28;20198;-61
2023/03/29 04:45:24;;;;;;;3.05;2.13;;;;;;;;;;5012455;28;20623;-61
2023/03/29 04:47:52;;;;;;;4.68;2.60;;;;;;;;;;5012260;28;20230;-61
2023/03/29 04:50:20;;;;;;;4.78;2.47;;;;;;;;;;5012580;28;20555;-61
2023/03/29 04:52:49;;;;;;;3.75;2.33;;;;;;;;;;5012553;28;20196;-61
2023/03/29 04:55:16;;;;;;;5.35;2.10;;;;;;;;;;5013212;28;20195;-61
2023/03/29 04:57:44;;;;;;;7.13;2.65;;;;;;;;;;5016092;28;20198;-61
2023/03/29 05:00:13;;;;;;;3.67;2.20;;;;;;;;;;5015949;28;20223;-61
2023/03/29 05:02:41;;;;;;;2.42;2.22;;;;;;;;;;5016147;28;20196;-61
2023/03/29 05:05:10;;;;;;;5.32;2.70;;;;;;;;;;5015991;28;20610;-61
2023/03/29 05:07:37;;;;;;;3.47;2.38;;;;;;;;;;5016341;28;20198;-61
2023/03/29 05:10:06;;;;;;;6.97;2.63;;;;;;;;;;5015772;28;20376;-61
2023/03/29 05:12:32;;;;;;;4.03;2.78;;;;;;;;;;5015788;28;20295;-61
2023/03/29 05:15:00;;;;;;;6.22;3.42;;;;;;;;;;5015632;28;20198;-61
2023/03/29 05:17:27;;;;;;;2.40;1.85;;;;;;;;;;5015848;28;20201;-61
2023/03/29 05:19:54;;;;;;;8.02;3.20;;;;;;;;;;5015867;28;20221;-61
2023/03/29 05:22:22;;;;;;;5.82;2.97;;;;;;;;;;5015566;28;20231;-61
2023/03/29 05:24:49;;;;;;;3.10;2.80;;;;;;;;;;5015682;28;20191;-61
2023/03/29 05:27:17;;;;;;;10.48;3.40;;;;;;;;;;5015481;28;20209;-61
2023/03/29 05:29:44;;;;;;;7.70;3.08;;;;;;;;;;5015559;28;20253;-60
2023/03/29 05:32:12;;;;;;;6.07;3.63;;;;;;;;;;5015266;28;20245;-61
2023/03/29 05:34:39;;;;;;;4.53;2.75;;;;;;;;;;5015241;28;20678;-61
2023/03/29 05:37:06;;;;;;;4.90;2.97;;;;;;;;;;5015440;28;20279;-60
2023/03/29 05:39:33;;;;;;;6.43;2.75;;;;;;;;;;5015360;28;20630;-61
2023/03/29 05:42:00;;;;;;;3.15;2.83;;;;;;;;;;5015241;28;20206;-61
2023/03/29 05:44:28;;;;;;;6.53;2.75;;;;;;;;;;5015374;28;20278;-61
2023/03/29 05:46:56;;;;;;;7.70;2.80;;;;;;;;;;5015337;28;20203;-61
2023/03/29 05:49:23;;;;;;;6.10;3.85;;;;;;;;;;5015105;28;20222;-61
2023/03/29 05:51:50;;;;;;;4.80;3.83;;;;;;;;;;5014995;28;20282;-61
2023/03/29 05:54:17;;;;;;;5.30;3.10;;;;;;;;;;5014988;28;20563;-61
2023/03/29 05:56:44;;;;;;;6.57;3.53;;;;;;;;;;5015255;28;20188;-61
2023/03/29 05:59:12;;;;;;;4.70;3.03;;;;;;;;;;5015085;28;20287;-61
2023/03/29 06:01:41;;;;;;;15.18;3.65;;;;;;;;;;5015037;28;20192;-61
2023/03/29 06:04:09;;;;;;;4.28;2.60;;;;;;;;;;5014916;28;20279;-61
2023/03/29 06:06:36;;;;;;;7.60;2.53;;;;;;;;;;5014337;28;20272;-61
2023/03/29 06:09:03;;;;;;;4.90;2.70;;;;;;;;;;5014377;28;20219;-61
2023/03/29 06:11:30;;;;;;;8.27;2.92;;;;;;;;;;5014828;28;20281;-61
2023/03/29 06:13:57;;;;;;;7.72;3.08;;;;;;;;;;5014895;28;20458;-61
2023/03/29 06:16:24;;;;;;;11.73;3.55;;;;;;;;;;5014699;28;20221;-61
2023/03/29 06:18:53;;;;;;;8.43;3.50;;;;;;;;;;5014489;28;20670;-61
2023/03/29 06:21:20;;;;;;;4.72;2.75;;;;;;;;;;5014473;28;20342;-61
2023/03/29 06:23:46;;;;;;;6.10;2.83;;;;;;;;;;5014677;28;20283;-61
2023/03/29 06:26:13;;;;;;;8.40;4.25;;;;;;;;;;5014488;28;20191;-61
2023/03/29 06:28:40;;;;;;;9.07;3.22;;;;;;;;;;5014176;28;20651;-61
2023/03/29 06:31:08;;;;;;;4.85;3.00;;;;;;;;;;5014285;28;20192;-61
2023/03/29 06:33:36;;;;;;;5.40;2.55;;;;;;;;;;5014258;28;20195;-61
2023/03/29 06:36:05;;;;;;;11.18;3.00;;;;;;;;;;5014167;28;20250;-61
2023/03/29 06:38:34;;;;;;;6.95;2.78;;;;;;;;;;5013844;28;20739;-61
2023/03/29 06:41:02;;;;;;;6.13;2.55;;;;;;;;;;5014264;28;20194;-61
2023/03/29 06:43:30;;;;;;;8.02;3.78;;;;;;;;;;5014138;28;20187;-61
2023/03/29 06:45:57;;;;;;;5.13;3.10;;;;;;;;;;5014098;28;20279;-61
2023/03/29 06:48:24;;;;;;;5.45;3.05;;;;;;;;;;5013879;28;20650;-61
2023/03/29 06:50:51;;;;;;;6.05;3.10;;;;;;;;;;5013995;28;20310;-61
2023/03/29 06:53:19;;;;;;;3.90;3.23;;;;;;;;;;5013923;28;20246;-61
2023/03/29 06:55:46;;;;;;;5.47;2.80;;;;;;;;;;5013914;28;20890;-61
2023/03/29 06:58:14;;;;;;;3.10;2.40;;;;;;;;;;5013824;28;20187;-61
2023/03/29 07:00:41;;;;;;;6.32;3.35;;;;;;;;;;5013746;28;20201;-61
2023/03/29 07:03:12;;;;;;;5.07;2.80;;;;;;;;;;5013567;28;20624;-61
2023/03/29 07:05:39;;;;;;;9.32;2.78;;;;;;;;;;5013903;28;20207;-61
2023/03/29 07:08:12;;;;;;;10.97;3.00;;;;;;;;;;5013737;28;20195;-61
2023/03/29 07:10:42;;;;;;;5.93;2.63;;;;;;;;;;5013534;28;20562;-61
2023/03/29 07:13:10;;;;;;;6.72;3.67;;;;;;;;;;5013351;28;20450;-61
2023/03/29 07:15:37;;;;;;;4.00;3.70;;;;;;;;;;5013451;28;20528;-61
2023/03/29 07:18:04;;;;;;;6.43;4.67;;;;;;;;;;5013589;28;20538;-61
2023/03/29 07:20:32;;;;;;;3.92;2.50;;;;;;;;;;5013439;28;20505;-60
2023/03/29 07:22:59;;;;;;;3.27;3.07;;;;;;;;;;5013253;28;20191;-61
2023/03/29 07:25:28;;;;;;;4.00;2.93;;;;;;;;;;5013188;28;20524;-61
2023/03/29 07:27:57;;;;;;;4.85;3.15;;;;;;;;;;5013027;28;20454;-62
2023/03/29 07:30:26;;;;;;;6.63;3.40;;;;;;;;;;5012084;28;20219;-62
2023/03/29 07:32:54;;;;;;;3.87;2.80;;;;;;;;;;5013466;28;20930;-61
2023/03/29 07:35:22;;;;;;;5.93;3.07;;;;;;;;;;5013030;28;20447;-60
2023/03/29 07:37:49;;;;;;;8.60;4.22;;;;;;;;;;5011179;28;20455;-58
2023/03/29 07:40:18;;;;;;;3.40;3.13;;;;;;;;;;4997684;28;20201;-61
2023/03/29 07:42:46;;;;;;;6.00;4.70;;;;;;;;;;4993464;28;20550;-60
2023/03/29 07:45:15;;;;;;;5.18;4.70;;;;;;;;;;4993633;28;20451;-60
2023/03/29 07:47:43;;;;;;;4.77;3.13;;;;;;;;;;4993339;28;20189;-58
2023/03/29 07:50:10;;;;;;;8.13;3.80;;;;;;;;;;4993315;28;20889;-61
2023/03/29 07:52:38;;;;;;;4.83;4.40;;;;;;;;;;4993250;28;20467;-59
2023/03/29 07:55:05;;;;;;;7.43;5.97;;;;;;;;;;4993120;28;20822;-60
2023/03/29 07:57:32;;;;;;;7.20;3.90;;;;;;;;;;4993456;28;20451;-61
2023/03/29 08:00:00;;;;;;;8.07;3.70;;;;;;;;;;4993387;28;20455;-60
2023/03/29 08:02:28;;;;;;;8.27;4.67;;;;;;;;;;4993277;28;20462;-60
2023/03/29 08:04:55;;;;;;;4.70;3.80;;;;;;;;;;4997427;28;20457;-62
2023/03/29 08:07:23;;;;;;;5.23;3.27;;;;;;;;;;5011908;28;20970;-60
2023/03/29 08:09:50;;;;;;;5.13;2.80;;;;;;;;;;4993366;28;20534;-62
2023/03/29 08:12:17;;;;;;;9.37;3.13;;;;;;;;;;4993348;28;20894;-60
2023/03/29 08:14:44;;;;;;;9.93;3.90;;;;;;;;;;4993179;28;20467;-61
2023/03/29 08:17:11;;;;;;;9.27;3.47;;;;;;;;;;4993283;28;20452;-63
2023/03/29 08:19:40;;;;;;;6.30;3.20;;;;;;;;;;4993213;28;20803;-62
2023/03/29 08:22:07;;;;;;;5.13;3.07;;;;;;;;;;4992964;28;21001;-63
2023/03/29 08:24:34;;;;;;;13.17;6.90;;;;;;;;;;4992832;28;20514;-61
2023/03/29 08:27:01;;;;;;;5.90;3.33;;;;;;;;;;4993005;28;21050;-61
2023/03/29 08:29:28;;;;;;;6.10;3.20;;;;;;;;;;4993168;28;20978;-61
2023/03/29 08:31:56;;;;;;;4.90;2.27;;;;;;;;;;5003823;28;20451;-62
2023/03/29 08:34:23;;;;;;;6.03;2.90;;;;;;;;;;5016560;28;20454;-61
2023/03/29 08:36:51;;;;;;;3.40;2.67;;;;;;;;;;5016356;28;20801;-63
2023/03/29 08:39:18;;;;;;;4.10;2.80;;;;;;;;;;5016191;28;20478;-60
2023/03/29 08:41:52;;;;;;;3.50;3.20;;;;;;;;;;5016560;28;20541;-57
2023/03/29 08:44:23;;;;;;;8.63;4.47;;;;;;;;;;5016161;28;20450;-58
2023/03/29 08:46:54;;;;;;;4.83;3.83;;;;;;;;;;5016295;28;20443;-58
2023/03/29 08:49:22;;;;;;;6.87;3.57;;;;;;;;;;5016093;28;20484;-59
2023/03/29 08:51:52;;;;;;;4.60;2.60;;;;;;;;;;5016289;28;20474;-61
2023/03/29 08:54:23;;;;;;;6.27;5.63;;;;;;;;;;5016124;28;20458;-59
2023/03/29 08:56:51;;;;;;;6.30;3.50;;;;;;;;;;5016120;28;20446;-59
2023/03/29 08:59:21;;;;;;;7.50;5.00;;;;;;;;;;5015794;28;20446;-60
2023/03/29 09:01:49;;;;;;;4.50;4.00;;;;;;;;;;5015796;28;20450;-59
2023/03/29 09:04:17;;;;;;;9.03;5.90;;;;;;;;;;5016308;28;20790;-58
2023/03/29 09:06:44;;;;;;;6.40;5.80;;;;;;;;;;5015909;28;20516;-58
2023/03/29 09:09:13;;;;;;;6.40;3.97;;;;;;;;;;5016101;28;20454;-59
2023/03/29 09:11:52;;;;;;;8.40;5.37;;;;;;;;;;5015635;28;20529;-59
2023/03/29 09:14:30;;;;;;;6.13;3.27;;;;;;;;;;5015618;28;20454;-61
2023/03/29 09:16:59;;;;;;;4.40;3.23;;;;;;;;;;5015781;28;20458;-60
2023/03/29 09:19:26;;;;;;;4.87;2.67;;;;;;;;;;5015839;28;20909;-59
2023/03/29 09:21:59;;;;;;;3.00;2.20;;;;;;;;;;5015638;28;20454;-60
2023/03/29 09:24:42;;;;;;;3.17;2.87;;;;;;;;;;5015546;28;20454;-60
2023/03/29 09:27:11;;;;;;;3.73;2.13;;;;;;;;;;5015290;28;20454;-59
2023/03/29 09:29:48;;;;;;;2.33;2.07;;;;;;;;;;5015354;28;20546;-61
2023/03/29 09:32:18;;;;;;;3.60;2.20;;;;;;;;;;5015369;28;20813;-61
2023/03/29 09:34:48;;;;;;;3.70;2.10;;;;;;;;;;5014596;28;20489;-61
2023/03/29 09:37:20;;;;;;;9.73;2.77;;;;;;;;;;5015033;28;20541;-61
2023/03/29 09:39:48;;;;;;;2.40;2.20;;;;;;;;;;5015356;28;20478;-61
2023/03/29 09:42:18;;;;;;;4.17;2.40;;;;;;;;;;5013773;28;20934;-62
2023/03/29 09:44:47;;;;;;;4.63;3.23;;;;;;;;;;5015205;28;20454;-61
2023/03/29 09:47:18;;;;;;;5.47;2.50;;;;;;;;;;5015122;28;20447;-61
2023/03/29 09:49:47;;;;;;;2.40;2.20;;;;;;;;;;5014931;28;20461;-60
2023/03/29 09:52:15;;;;;;;2.57;2.13;;;;;;;;;;5015024;28;20463;-60
2023/03/29 09:54:43;;;;;;;2.33;2.10;;;;;;;;;;5015161;28;20454;-61
2023/03/29 09:57:11;;;;;;;2.73;2.20;;;;;;;;;;5015006;28;20478;-60
2023/03/29 09:59:40;;;;;;;2.70;2.30;;;;;;;;;;5015284;28;20450;-61
2023/03/29 10:02:08;;;;;;;4.53;2.63;;;;;;;;;;5014697;28;20547;-62
2023/03/29 10:04:34;;;;;;;2.00;1.90;;;;;;;;;;5014965;28;21000;-64
2023/03/29 10:07:02;;;;;;;4.87;2.60;;;;;;;;;;5014973;28;20464;-61
2023/03/29 10:09:31;;;;;;;6.03;1.97;;;;;;;;;;5014697;28;20443;-63
2023/03/29 10:12:01;;;;;;;2.07;1.87;;;;;;;;;;5015006;28;20482;-63
2023/03/29 10:14:32;;;;;;;4.50;2.50;;;;;;;;;;5014707;28;20787;-63
2023/03/29 10:17:01;;;;;;;3.30;2.30;;;;;;;;;;5014798;28;20438;-63
2023/03/29 10:19:33;;;;;;;5.50;2.37;;;;;;;;;;5014474;28;20945;-62
2023/03/29 10:22:00;;;;;;;5.50;2.70;;;;;;;;;;5014536;28;20482;-60
2023/03/29 10:24:27;;;;;;;3.20;2.38;;;;;;;;;;5013839;28;20545;-64
2023/03/29 10:26:56;;;;;;;2.60;2.40;;;;;;;;;;5014053;28;20215;-64
2023/03/29 10:29:24;;;;;;;3.33;2.27;;;;;;;;;;5014145;28;20451;-63
2023/03/29 10:31:51;;;;;;;2.37;2.17;;;;;;;;;;5014139;28;20481;-64
2023/03/29 10:34:24;;;;;;;2.37;1.93;;;;;;;;;;5013824;28;20446;-63
2023/03/29 10:36:53;;;;;;;4.13;2.20;;;;;;;;;;5014096;28;20442;-62
2023/03/29 10:39:20;;;;;;;2.70;2.20;;;;;;;;;;5013608;28;21008;-62
2023/03/29 10:41:51;;;;;;;1.83;1.73;;;;;;;;;;5013696;28;20512;-63
2023/03/29 10:44:26;;;;;;;2.50;2.30;;;;;;;;;;5013952;28;20453;-62
2023/03/29 10:46:53;;;;;;;4.17;2.43;;;;;;;;;;5013893;28;20450;-62
2023/03/29 10:49:24;;;;;;;3.00;2.80;;;;;;;;;;5020360;28;20450;-62
2023/03/29 10:51:51;;;;;;;2.83;1.97;;;;;;;;;;5033297;28;20481;-61
2023/03/29 10:54:19;;;;;;;3.17;2.27;;;;;;;;;;5024871;28;20886;-61
2023/03/29 10:56:49;;;;;;;3.53;2.30;;;;;;;;;;5013128;28;20474;-62
2023/03/29 10:59:22;;;;;;;2.90;1.93;;;;;;;;;;5013339;28;20449;-62
2023/03/29 11:01:55;;;;;;;3.30;3.10;;;;;;;;;;5013590;28;20446;-61
2023/03/29 11:04:29;;;;;;;2.23;2.13;;;;;;;;;;5013459;28;20447;-61
2023/03/29 11:07:04;;;;;;;4.13;3.00;;;;;;;;;;5013309;28;20541;-61
2023/03/29 11:09:39;;;;;;;3.17;2.80;;;;;;;;;;5013230;28;20913;-63
2023/03/29 11:12:11;;;;;;;2.97;2.77;;;;;;;;;;5013366;28;21001;-62
2023/03/29 11:14:41;;;;;;;3.30;3.10;;;;;;;;;;5013133;28;20542;-61
2023/03/29 11:17:15;;;;;;;7.17;3.30;;;;;;;;;;5013060;28;20451;-63
2023/03/29 11:19:50;;;;;;;2.77;2.57;;;;;;;;;;5013354;28;20490;-61
2023/03/29 11:22:20;;;;;;;2.70;2.47;;;;;;;;;;5013181;28;20477;-60
2023/03/29 11:25:01;;;;;;;2.93;2.73;;;;;;;;;;5013009;28;20548;-61
2023/03/29 11:27:32;;;;;;;3.00;2.73;;;;;;;;;;5012773;28;20457;-60
2023/03/29 11:30:13;;;;;;;3.10;2.90;;;;;;;;;;5013171;28;20471;-64
2023/03/29 11:32:44;;;;;;;5.40;2.70;;;;;;;;;;5012894;28;20450;-61
2023/03/29 11:35:19;;;;;;;2.53;2.43;;;;;;;;;;5012960;28;20455;-64
2023/03/29 11:37:50;;;;;;;3.13;2.93;;;;;;;;;;5012719;28;20450;-62
2023/03/29 11:40:28;;;;;;;3.00;2.80;;;;;;;;;;5013022;28;20443;-61
2023/03/29 11:42:56;;;;;;;2.97;2.77;;;;;;;;;;5013002;28;20545;-61
2023/03/29 11:45:26;;;;;;;3.03;2.73;;;;;;;;;;5012595;28;20781;-62
2023/03/29 11:47:54;;;;;;;3.27;2.77;;;;;;;;;;5012300;28;20446;-61
2023/03/29 11:50:25;;;;;;;2.60;2.40;;;;;;;;;;5012275;28;20554;-62
2023/03/29 11:52:53;;;;;;;2.90;2.70;;;;;;;;;;5012648;28;20439;-61
2023/03/29 11:55:22;;;;;;;3.10;2.90;;;;;;;;;;5013007;28;20478;-61
2023/03/29 11:57:52;;;;;;;2.93;2.73;;;;;;;;;;5012908;28;20453;-61
2023/03/29 12:00:22;;;;;;;2.90;2.70;;;;;;;;;;5013250;28;20451;-61
2023/03/29 12:02:51;;;;;;;3.50;3.10;;;;;;;;;;5012582;28;20451;-61
2023/03/29 12:05:20;;;;;;;3.20;2.63;;;;;;;;;;5012130;28;20625;-61
2023/03/29 12:07:51;;;;;;;4.90;3.47;;;;;;;;;;5012483;28;20953;-61
2023/03/29 12:10:20;;;;;;;5.00;4.60;;;;;;;;;;5012705;28;20452;-61
2023/03/29 12:12:49;;;;;;;3.30;3.10;;;;;;;;;;5012665;28;20833;-61
2023/03/29 12:15:19;;;;;;;5.00;3.40;;;;;;;;;;5012553;28;20450;-62
2023/03/29 12:17:49;;;;;;;6.27;4.63;;;;;;;;;;5012466;28;20878;-61
2023/03/29 12:20:22;;;;;;;4.87;3.53;;;;;;;;;;5012434;28;20512;-62
2023/03/29 12:22:50;;;;;;;6.03;4.07;;;;;;;;;;5012380;28;20516;-62
2023/03/29 12:25:19;;;;;;;4.63;4.23;;;;;;;;;;5012446;28;20505;-61
2023/03/29 12:27:49;;;;;;;3.43;3.23;;;;;;;;;;5012539;28;20490;-62
2023/03/29 12:30:26;;;;;;;4.13;3.80;;;;;;;;;;5012609;28;20542;-61
2023/03/29 12:33:00;;;;;;;3.83;3.53;;;;;;;;;;5012636;28;20573;-62
2023/03/29 12:35:30;;;;;;;5.43;3.63;;;;;;;;;;5012217;28;20972;-61
2023/03/29 12:38:06;;;;;;;3.90;3.70;;;;;;;;;;5012021;28;20995;-62
2023/03/29 12:40:37;;;;;;;4.47;4.17;;;;;;;;;;5012177;28;20544;-62
2023/03/29 12:43:05;;;;;;;4.40;4.00;;;;;;;;;;5012410;28;20900;-62
2023/03/29 12:45:33;;;;;;;4.57;4.27;;;;;;;;;;5012119;28;20553;-61
2023/03/29 12:48:01;;;;;;;5.97;3.90;;;;;;;;;;5012191;28;20545;-63
2023/03/29 12:50:33;;;;;;;4.23;3.83;;;;;;;;;;5011975;28;20455;-64
2023/03/29 12:53:06;;;;;;;4.20;3.83;;;;;;;;;;5011892;28;21013;-63
2023/03/29 12:55:34;;;;;;;4.47;4.10;;;;;;;;;;5012258;28;20450;-60
2023/03/29 12:58:03;;;;;;;4.70;4.03;;;;;;;;;;5012404;28;20493;-62
2023/03/29 13:00:32;;;;;;;6.93;3.40;;;;;;;;;;5012276;28;20509;-61
2023/03/29 13:03:01;;;;;;;5.87;4.50;;;;;;;;;;5007639;28;20461;-61
2023/03/29 13:05:29;;;;;;;4.37;3.97;;;;;;;;;;4992275;28;20462;-62
2023/03/29 13:07:56;;;;;;;3.87;3.53;;;;;;;;;;4992569;28;20455;-62
2023/03/29 13:10:36;;;;;;;3.60;3.40;;;;;;;;;;4992288;28;20558;-61
2023/03/29 13:13:10;;;;;;;5.63;3.97;;;;;;;;;;4991970;28;20454;-61
2023/03/29 13:15:38;;;;;;;3.83;3.53;;;;;;;;;;4992308;28;20451;-62
2023/03/29 13:18:10;;;;;;;4.07;3.77;;;;;;;;;;4995707;28;20457;-62
2023/03/29 13:20:44;;;;;;;4.70;3.50;;;;;;;;;;4995878;28;20451;-61
2023/03/29 13:23:19;;;;;;;3.90;3.50;;;;;;;;;;4995805;28;20476;-62
2023/03/29 13:25:54;;;;;;;4.73;3.97;;;;;;;;;;4995782;28;20483;-61
2023/03/29 13:28:23;;;;;;;7.87;5.53;;;;;;;;;;4995548;28;20862;-62
2023/03/29 13:30:55;;;;;;;6.57;5.90;;;;;;;;;;4995665;28;20451;-61
2023/03/29 13:33:30;;;;;;;5.77;5.30;;;;;;;;;;4995516;28;20462;-62
2023/03/29 13:36:00;;;;;;;4.93;4.43;;;;;;;;;;4994995;28;20452;-61
2023/03/29 13:38:30;;;;;;;4.93;4.47;;;;;;;;;;4994950;28;21041;-61
2023/03/29 13:41:23;;;;;;;5.40;4.90;;;;;;;;;;4995363;28;20906;-61
2023/03/29 13:43:52;;;;;;;4.10;3.70;;;;;;;;;;4995410;28;20546;-61
2023/03/29 13:46:22;;;;;;;4.47;4.17;;;;;;;;;;4995457;28;20885;-62
2023/03/29 13:48:53;;;;;;;4.20;3.80;;;;;;;;;;4995361;28;20974;-61
2023/03/29 13:51:22;;;;;;;7.23;5.63;;;;;;;;;;4995238;28;20835;-61
2023/03/29 13:53:51;;;;;;;5.40;4.57;;;;;;;;;;4995338;28;20554;-61
2023/03/29 13:56:23;;;;;;;7.47;3.90;;;;;;;;;;4995229;28;20448;-61
2023/03/29 13:58:52;;;;;;;8.83;6.77;;;;;;;;;;4995057;28;20870;-60
2023/03/29 14:01:23;;;;;;;8.30;6.13;;;;;;;;;;4994919;28;20493;-60
2023/03/29 14:03:51;;;;;;;4.07;3.77;;;;;;;;;;4994764;28;21029;-61
2023/03/29 14:06:22;;;;;;;4.10;3.80;;;;;;;;;;4995018;28;20458;-61
2023/03/29 14:08:49;;;;;;;3.57;3.27;;;;;;;;;;4995524;28;20555;-61
2023/03/29 14:11:21;;;;;;;4.80;4.40;;;;;;;;;;4994803;28;20515;-61
2023/03/29 14:13:49;;;;;;;5.00;3.93;;;;;;;;;;4994605;28;20460;-61
2023/03/29 14:16:17;;;;;;;4.97;4.00;;;;;;;;;;4994382;28;20458;-61
2023/03/29 14:18:46;;;;;;;3.33;3.00;;;;;;;;;;4993836;28;20848;-61
2023/03/29 14:21:14;;;;;;;4.60;4.27;;;;;;;;;;4994868;28;20842;-61
2023/03/29 14:23:43;;;;;;;3.93;3.63;;;;;;;;;;4994481;28;20483;-60
2023/03/29 14:26:15;;;;;;;5.10;4.67;;;;;;;;;;4994290;28;20455;-61
2023/03/29 14:28:46;;;;;;;6.43;5.20;;;;;;;;;;4993828;28;20820;-60
2023/03/29 14:31:19;;;;;;;5.57;5.00;;;;;;;;;;4994215;28;20455;-61
2023/03/29 14:33:46;;;;;;;4.20;3.77;;;;;;;;;;4994249;28;20981;-60
2023/03/29 14:36:16;;;;;;;3.77;3.40;;;;;;;;;;4994504;28;20924;-61
2023/03/29 14:38:44;;;;;;;5.00;4.60;;;;;;;;;;4993899;28;20482;-61
2023/03/29 14:41:11;;;;;;;5.20;4.70;;;;;;;;;;4994482;28;20445;-61
2023/03/29 14:43:40;;;;;;;5.37;4.87;;;;;;;;;;4994787;28;20432;-61
2023/03/29 14:46:08;;;;;;;6.47;5.20;;;;;;;;;;4994247;28;20558;-61
2023/03/29 14:48:36;;;;;;;4.00;3.70;;;;;;;;;;4993955;28;21046;-61
2023/03/29 14:51:04;;;;;;;5.83;5.33;;;;;;;;;;4993628;28;20997;-60
2023/03/29 14:53:33;;;;;;;5.73;3.87;;;;;;;;;;4993802;28;20505;-60